createdAt,value
2018-08-30T00:00:05.222Z,89.04
2018-08-30T00:02:35.091Z,89.16
2018-08-30T00:05:06.256Z,89.21
2018-08-30T00:07:39.486Z,88.97
2018-08-30T00:10:14.541Z,89.51
2018-08-30T00:12:57.349Z,88.44
2018-08-30T00:15:27.147Z,88.35
2018-08-30T00:17:55.854Z,88.97
2018-08-30T00:23:28.256Z,89.04
2018-08-30T00:26:01.756Z,89.15
2018-08-30T00:28:36.576Z,89.51
2018-08-30T00:33:59.784Z,89.30
2018-08-30T00:36:31.345Z,88.69
2018-08-30T00:39:03.416Z,89.28
2018-08-30T00:41:46.413Z,89.16
2018-08-30T00:44:22.658Z,89.22
2018-08-30T00:46:59.940Z,89.11
2018-08-30T00:49:32.997Z,89.52
2018-08-30T00:52:12.553Z,89.23
2018-08-30T00:54:48.619Z,89.46
2018-08-30T00:57:33.212Z,88.45
2018-08-30T01:00:20.519Z,89.37
2018-08-30T01:03:03.349Z,88.84
2018-08-30T01:05:38.957Z,88.56
2018-08-30T01:08:11.809Z,88.39
2018-08-30T01:10:42.388Z,88.74
2018-08-30T01:13:19.140Z,89.01
2018-08-30T01:16:02.690Z,88.02
2018-08-30T01:18:49.395Z,88.30
2018-08-30T01:24:02.095Z,88.25
2018-08-30T01:26:35.395Z,88.63
2018-08-30T01:29:09.043Z,88.86
2018-08-30T01:31:45.886Z,88.69
2018-08-30T01:37:07.099Z,88.68
2018-08-30T01:40:00.112Z,88.56
2018-08-30T01:42:40.269Z,88.18
2018-08-30T01:45:22.155Z,87.71
2018-08-30T01:51:03.847Z,87.96
2018-08-30T01:53:41.168Z,88.25
2018-08-30T01:56:14.429Z,88.48
2018-08-30T02:02:05.584Z,88.22
2018-08-30T02:04:43.427Z,88.22
2018-08-30T02:07:20.241Z,87.75
2018-08-30T02:09:59.403Z,88.32
2018-08-30T02:12:35.990Z,88.73
2018-08-30T02:18:10.667Z,88.70
2018-08-30T02:21:00.266Z,88.51
2018-08-30T02:26:49.549Z,88.78
2018-08-30T02:29:21.638Z,88.37
2018-08-30T02:31:53.774Z,88.72
2018-08-30T02:37:49.058Z,89.19
2018-08-30T02:40:37.807Z,88.84
2018-08-30T02:46:39.409Z,88.75
2018-08-30T02:52:09.534Z,89.11
2018-08-30T02:58:53.029Z,88.78
2018-08-30T03:04:35.146Z,88.08
2018-08-30T03:07:20.147Z,87.76
2018-08-30T03:09:54.930Z,88.29
2018-08-30T03:15:22.150Z,88.25
2018-08-30T03:18:11.200Z,88.66
2018-08-30T03:20:58.604Z,87.76
2018-08-30T03:26:27.832Z,87.99
2018-08-30T03:32:34.730Z,88.01
2018-08-30T03:35:15.109Z,88.31
2018-08-30T03:38:03.100Z,88.26
2018-08-30T03:44:03.306Z,88.16
2018-08-30T03:46:52.671Z,88.26
2018-08-30T03:49:33.781Z,87.62
2018-08-30T03:52:14.572Z,88.59
2018-08-30T03:54:53.372Z,88.80
2018-08-30T03:57:31.168Z,88.38
2018-08-30T04:00:33.870Z,88.51
2018-08-30T04:03:17.788Z,87.93
2018-08-30T04:05:55.424Z,88.84
2018-08-30T04:11:17.925Z,88.39
2018-08-30T04:20:25.747Z,88.27
2018-08-30T04:26:52.729Z,88.79
2018-08-30T04:32:43.431Z,88.98
2018-08-30T04:35:29.005Z,88.08
2018-08-30T04:41:05.599Z,88.20
2018-08-30T04:56:00.607Z,89.01
2018-08-30T04:58:30.261Z,88.55
2018-08-30T05:00:59.241Z,89.72
2018-08-30T05:03:29.468Z,88.70
2018-08-30T05:05:58.631Z,88.99
2018-08-30T05:08:27.741Z,89.26
2018-08-30T05:10:56.799Z,88.50
2018-08-30T05:13:25.798Z,88.89
2018-08-30T05:15:55.272Z,88.64
2018-08-30T05:18:23.948Z,88.81
2018-08-30T05:20:52.673Z,88.90
2018-08-30T05:23:21.564Z,88.99
2018-08-30T05:25:50.360Z,88.54
2018-08-30T05:28:19.158Z,89.26
2018-08-30T05:30:47.996Z,88.26
2018-08-30T05:33:17.282Z,88.66
2018-08-30T05:35:46.748Z,88.87
2018-08-30T05:38:15.324Z,89.15
2018-08-30T05:40:44.454Z,89.03
2018-08-30T05:43:13.194Z,89.25
2018-08-30T05:45:42.624Z,89.19
2018-08-30T05:48:11.408Z,89.09
2018-08-30T05:50:40.720Z,88.85
2018-08-30T05:53:09.614Z,88.86
2018-08-30T05:55:38.273Z,89.01
2018-08-30T05:58:06.952Z,89.19
2018-08-30T06:00:35.617Z,89.00
2018-08-30T06:03:04.924Z,88.09
2018-08-30T06:05:33.532Z,88.48
2018-08-30T06:08:02.317Z,88.61
2018-08-30T06:10:31.770Z,88.40
2018-08-30T06:13:00.639Z,88.03
2018-08-30T06:15:29.424Z,87.90
2018-08-30T06:17:58.211Z,88.43
2018-08-30T06:20:26.876Z,87.68
2018-08-30T06:22:56.482Z,87.54
2018-08-30T06:25:25.501Z,87.71
2018-08-30T06:27:54.576Z,88.33
2018-08-30T06:30:23.251Z,87.77
2018-08-30T06:32:52.325Z,88.02
2018-08-30T06:35:21.055Z,88.21
2018-08-30T06:37:50.123Z,88.26
2018-08-30T06:40:19.324Z,88.42
2018-08-30T06:42:47.822Z,87.04
2018-08-30T06:45:16.954Z,86.78
2018-08-30T06:47:45.898Z,86.94
2018-08-30T06:50:14.479Z,87.42
2018-08-30T06:52:43.143Z,86.49
2018-08-30T06:55:12.829Z,86.42
2018-08-30T06:57:42.162Z,86.24
2018-08-30T07:00:11.172Z,86.32
2018-08-30T07:02:39.908Z,86.14
2018-08-30T07:05:08.583Z,86.18
2018-08-30T07:07:37.358Z,85.48
2018-08-30T07:14:59.783Z,84.69
2018-08-30T07:17:28.753Z,85.32
2018-08-30T07:19:57.680Z,85.29
2018-08-30T07:22:26.919Z,84.78
2018-08-30T07:24:55.702Z,84.94
2018-08-30T07:27:24.997Z,84.80
2018-08-30T07:29:54.649Z,84.18
2018-08-30T07:32:23.471Z,83.97
2018-08-30T07:34:52.476Z,83.81
2018-08-30T07:37:21.060Z,83.70
2018-08-30T07:39:49.795Z,83.35
2018-08-30T07:42:18.446Z,83.43
2018-08-30T07:44:47.304Z,82.55
2018-08-30T07:47:16.534Z,82.41
2018-08-30T07:49:45.097Z,83.11
2018-08-30T07:52:14.622Z,82.10
2018-08-30T07:54:43.258Z,82.59
2018-08-30T07:57:11.782Z,81.70
2018-08-30T07:59:41.266Z,81.15
2018-08-30T08:02:10.863Z,81.16
2018-08-30T08:04:39.429Z,80.99
2018-08-30T08:07:08.809Z,80.11
2018-08-30T08:09:37.536Z,80.22
2018-08-30T08:12:06.439Z,80.10
2018-08-30T08:14:35.403Z,79.00
2018-08-30T08:17:05.150Z,78.94
2018-08-30T08:19:35.613Z,78.30
2018-08-30T08:22:04.323Z,77.65
2018-08-30T08:24:32.944Z,77.19
2018-08-30T08:27:02.167Z,77.33
2018-08-30T08:29:31.311Z,77.06
2018-08-30T08:32:00.229Z,76.45
2018-08-30T08:34:28.908Z,76.10
2018-08-30T08:36:57.767Z,75.52
2018-08-30T08:39:27.184Z,74.79
2018-08-30T08:41:56.033Z,75.02
2018-08-30T08:44:24.950Z,73.95
2018-08-30T08:46:53.633Z,73.52
2018-08-30T08:49:22.538Z,73.85
2018-08-30T08:51:51.447Z,73.93
2018-08-30T08:54:20.380Z,73.58
2018-08-30T08:56:49.235Z,73.78
2018-08-30T08:59:17.985Z,73.58
2018-08-30T09:01:46.497Z,71.53
2018-08-30T09:04:15.291Z,71.51
2018-08-30T09:06:44.328Z,71.31
2018-08-30T09:09:13.484Z,71.94
2018-08-30T09:11:42.956Z,70.69
2018-08-30T09:14:12.050Z,69.69
2018-08-30T09:16:41.365Z,67.29
2018-08-30T09:19:13.145Z,67.26
2018-08-30T09:21:41.807Z,68.87
2018-08-30T09:24:11.378Z,68.18
2018-08-30T09:26:40.188Z,68.41
2018-08-30T09:29:09.145Z,68.38
2018-08-30T09:31:38.811Z,67.00
2018-08-30T09:34:07.404Z,64.98
2018-08-30T09:36:36.182Z,66.37
2018-08-30T09:39:06.942Z,65.37
2018-08-30T09:41:35.942Z,65.12
2018-08-30T09:44:05.576Z,64.37
2018-08-30T09:46:34.302Z,65.44
2018-08-30T09:49:03.552Z,64.11
2018-08-30T09:51:35.028Z,62.66
2018-08-30T09:54:04.512Z,62.49
2018-08-30T09:56:33.721Z,62.28
2018-08-30T09:59:02.655Z,62.85
2018-08-30T10:01:36.417Z,63.43
2018-08-30T10:04:05.165Z,61.39
2018-08-30T10:06:33.977Z,62.42
2018-08-30T10:09:02.848Z,61.68
2018-08-30T10:11:31.509Z,61.37
2018-08-30T10:14:00.670Z,61.38
2018-08-30T10:16:29.464Z,61.34
2018-08-30T10:18:58.418Z,60.85
2018-08-30T10:21:26.984Z,59.57
2018-08-30T10:23:56.158Z,59.56
2018-08-30T10:26:25.596Z,58.98
2018-08-30T10:28:54.214Z,56.58
2018-08-30T10:31:23.063Z,56.16
2018-08-30T10:33:51.950Z,56.67
2018-08-30T10:36:20.892Z,56.88
2018-08-30T10:38:50.483Z,55.78
2018-08-30T10:41:19.278Z,55.49
2018-08-30T10:43:48.838Z,56.06
2018-08-30T10:46:17.593Z,57.04
2018-08-30T10:48:46.388Z,55.98
2018-08-30T10:51:15.001Z,56.47
2018-08-30T10:53:44.005Z,55.02
2018-08-30T10:56:15.443Z,54.87
2018-08-30T10:58:44.048Z,55.61
2018-08-30T11:01:12.693Z,56.05
2018-08-30T11:03:41.370Z,56.70
2018-08-30T11:06:10.300Z,55.88
2018-08-30T11:08:40.134Z,53.41
2018-08-30T11:11:08.961Z,53.30
2018-08-30T11:13:37.744Z,54.25
2018-08-30T11:16:06.418Z,53.47
2018-08-30T11:18:35.100Z,53.45
2018-08-30T11:21:04.108Z,53.94
2018-08-30T11:23:33.449Z,54.34
2018-08-30T11:26:02.631Z,51.85
2018-08-30T11:28:31.638Z,50.48
2018-08-30T11:31:00.621Z,50.58
2018-08-30T11:33:29.690Z,47.28
2018-08-30T11:35:58.327Z,47.57
2018-08-30T11:38:28.124Z,48.30
2018-08-30T11:40:56.836Z,46.99
2018-08-30T11:43:25.665Z,47.08
2018-08-30T11:46:00.933Z,47.76
2018-08-30T11:48:29.780Z,47.41
2018-08-30T11:50:58.757Z,47.92
2018-08-30T11:53:27.457Z,48.85
2018-08-30T11:55:56.136Z,49.60
2018-08-30T11:58:25.197Z,49.50
2018-08-30T12:00:53.851Z,49.44
2018-08-30T12:03:24.597Z,50.24
2018-08-30T12:05:53.892Z,48.92
2018-08-30T12:08:22.783Z,48.60
2018-08-30T12:10:52.403Z,48.80
2018-08-30T12:13:20.995Z,48.09
2018-08-30T12:15:50.088Z,47.50
2018-08-30T12:18:18.905Z,48.85
2018-08-30T12:20:47.628Z,47.68
2018-08-30T12:23:16.217Z,48.13
2018-08-30T12:25:44.828Z,48.75
2018-08-30T12:28:13.709Z,46.78
2018-08-30T12:30:42.366Z,44.90
2018-08-30T12:33:11.200Z,43.86
2018-08-30T12:35:40.464Z,46.29
2018-08-30T12:38:09.233Z,44.26
2018-08-30T12:40:37.966Z,43.45
2018-08-30T12:43:07.728Z,44.35
2018-08-30T12:45:36.480Z,45.08
2018-08-30T12:48:05.694Z,46.60
2018-08-30T12:50:34.295Z,47.96
2018-08-30T12:53:03.115Z,48.32
2018-08-30T12:55:31.989Z,48.40
2018-08-30T12:58:01.620Z,48.26
2018-08-30T13:00:30.456Z,48.00
2018-08-30T13:02:59.139Z,48.11
2018-08-30T13:05:28.459Z,47.56
2018-08-30T13:07:57.163Z,49.18
2018-08-30T13:10:25.769Z,49.68
2018-08-30T13:12:55.066Z,49.52
2018-08-30T13:15:23.960Z,49.15
2018-08-30T13:17:52.504Z,49.14
2018-08-30T13:20:22.159Z,49.52
2018-08-30T13:22:51.365Z,48.37
2018-08-30T13:25:20.168Z,49.02
2018-08-30T13:27:49.151Z,48.73
2018-08-30T13:30:18.480Z,43.56
2018-08-30T13:32:47.094Z,42.45
2018-08-30T13:35:15.972Z,39.39
2018-08-30T13:37:45.034Z,38.38
2018-08-30T13:40:13.919Z,35.73
2018-08-30T13:42:42.817Z,36.08
2018-08-30T13:45:11.930Z,33.32
2018-08-30T13:47:40.374Z,34.18
2018-08-30T13:50:09.916Z,35.84
2018-08-30T13:52:38.368Z,37.38
2018-08-30T13:55:07.715Z,39.71
2018-08-30T13:57:37.251Z,38.58
2018-08-30T14:00:06.166Z,39.83
2018-08-30T14:02:34.792Z,40.45
2018-08-30T14:05:03.869Z,41.30
2018-08-30T14:07:32.804Z,39.47
2018-08-30T14:10:02.145Z,38.62
2018-08-30T14:12:30.499Z,37.26
2018-08-30T14:14:59.633Z,36.06
2018-08-30T14:17:28.801Z,37.16
2018-08-30T14:19:57.882Z,36.84
2018-08-30T14:22:26.418Z,36.23
2018-08-30T14:24:55.090Z,35.80
2018-08-30T14:27:24.036Z,36.95
2018-08-30T14:29:52.680Z,37.67
2018-08-30T14:32:21.503Z,37.54
2018-08-30T14:34:50.428Z,37.75
2018-08-30T14:37:19.147Z,36.74
2018-08-30T14:39:49.013Z,34.18
2018-08-30T14:42:17.921Z,33.18
2018-08-30T14:44:46.558Z,30.43
2018-08-30T14:47:15.452Z,28.96
2018-08-30T14:49:43.912Z,29.58
2018-08-30T14:52:13.549Z,29.04
2018-08-30T14:54:42.570Z,27.90
2018-08-30T14:57:11.981Z,26.19
2018-08-30T14:59:41.125Z,27.94
2018-08-30T15:02:10.901Z,27.45
2018-08-30T15:04:40.185Z,28.14
2018-08-30T15:07:08.977Z,26.78
2018-08-30T15:09:37.861Z,27.11
2018-08-30T15:12:06.770Z,26.65
2018-08-30T15:14:35.613Z,27.63
2018-08-30T15:17:04.446Z,24.59
2018-08-30T15:19:32.866Z,24.44
2018-08-30T15:22:01.432Z,24.68
2018-08-30T15:24:30.985Z,24.89
2018-08-30T15:26:59.748Z,25.27
2018-08-30T15:29:29.493Z,25.63
2018-08-30T15:31:59.004Z,25.79
2018-08-30T15:34:28.131Z,26.13
2018-08-30T15:36:57.912Z,26.02
2018-08-30T15:39:26.683Z,26.03
2018-08-30T15:41:55.504Z,26.10
2018-08-30T15:44:24.240Z,25.84
2018-08-30T15:46:53.032Z,28.88
2018-08-30T15:49:28.268Z,29.19
2018-08-30T15:51:56.955Z,30.02
2018-08-30T15:54:25.910Z,31.25
2018-08-30T15:56:54.665Z,31.67
2018-08-30T15:59:23.362Z,33.01
2018-08-30T16:01:52.032Z,33.21
2018-08-30T16:04:20.747Z,34.11
2018-08-30T16:06:49.713Z,34.48
2018-08-30T16:09:18.901Z,35.65
2018-08-30T16:11:48.527Z,36.29
2018-08-30T16:14:17.423Z,37.16
2018-08-30T16:16:46.072Z,37.21
2018-08-30T16:19:15.067Z,37.56
2018-08-30T16:21:44.657Z,37.71
2018-08-30T16:24:14.091Z,37.28
2018-08-30T16:26:43.678Z,37.34
2018-08-30T16:29:12.660Z,37.96
2018-08-30T16:31:41.573Z,38.33
2018-08-30T16:34:10.321Z,39.14
2018-08-30T16:36:39.099Z,39.13
2018-08-30T16:39:10.146Z,39.40
2018-08-30T16:41:38.940Z,39.57
2018-08-30T16:44:08.533Z,39.94
2018-08-30T16:46:37.200Z,38.99
2018-08-30T16:49:06.486Z,39.46
2018-08-30T16:51:35.254Z,39.55
2018-08-30T16:54:04.963Z,39.08
2018-08-30T16:56:33.523Z,39.32
2018-08-30T16:59:03.239Z,39.17
2018-08-30T17:01:31.721Z,40.13
2018-08-30T17:04:01.038Z,39.76
2018-08-30T17:06:30.860Z,40.67
2018-08-30T17:09:06.545Z,40.36
2018-08-30T17:11:35.327Z,40.08
2018-08-30T17:14:04.949Z,40.71
2018-08-30T17:16:33.849Z,41.84
2018-08-30T17:19:12.825Z,41.60
2018-08-30T17:21:41.352Z,42.68
2018-08-30T17:24:10.461Z,43.54
2018-08-30T17:26:39.309Z,43.48
2018-08-30T17:29:08.064Z,43.51
2018-08-30T17:31:36.701Z,43.31
2018-08-30T17:34:06.161Z,43.35
2018-08-30T17:36:34.827Z,43.47
2018-08-30T17:39:04.984Z,43.76
2018-08-30T17:41:33.781Z,43.70
2018-08-30T17:44:02.490Z,43.76
2018-08-30T17:46:31.290Z,43.41
2018-08-30T17:48:59.873Z,44.61
2018-08-30T17:51:28.806Z,44.22
2018-08-30T17:53:57.646Z,44.67
2018-08-30T17:56:26.452Z,46.27
2018-08-30T17:58:55.920Z,45.83
2018-08-30T18:01:24.754Z,47.42
2018-08-30T18:03:53.177Z,47.90
2018-08-30T18:06:21.888Z,48.49
2018-08-30T18:08:50.990Z,48.16
2018-08-30T18:11:19.639Z,48.75
2018-08-30T18:13:48.206Z,49.19
2018-08-30T18:16:16.833Z,49.54
2018-08-30T18:18:46.563Z,50.10
2018-08-30T18:21:15.390Z,49.31
2018-08-30T18:23:44.383Z,49.77
2018-08-30T18:26:12.967Z,51.03
2018-08-30T18:28:41.677Z,51.05
2018-08-30T18:31:11.168Z,51.06
2018-08-30T18:33:39.985Z,51.25
2018-08-30T18:36:09.393Z,51.77
2018-08-30T18:38:38.852Z,50.96
2018-08-30T18:41:07.545Z,51.08
2018-08-30T18:43:37.042Z,51.30
2018-08-30T18:46:06.004Z,51.04
2018-08-30T18:48:34.916Z,51.45
2018-08-30T18:51:03.609Z,51.51
2018-08-30T18:53:32.251Z,52.57
2018-08-30T18:56:00.901Z,52.46
2018-08-30T18:58:30.175Z,52.55
2018-08-30T19:00:58.954Z,52.77
2018-08-30T19:03:27.506Z,52.69
2018-08-30T19:05:56.409Z,52.84
2018-08-30T19:08:25.695Z,53.38
2018-08-30T19:10:54.786Z,53.20
2018-08-30T19:13:25.488Z,54.32
2018-08-30T19:16:00.391Z,54.58
2018-08-30T19:18:34.655Z,54.51
2018-08-30T19:21:03.949Z,54.58
2018-08-30T19:23:33.374Z,54.85
2018-08-30T19:26:03.184Z,54.35
2018-08-30T19:28:32.927Z,55.53
2018-08-30T19:31:02.149Z,54.84
2018-08-30T19:33:31.227Z,55.06
2018-08-30T19:36:05.278Z,55.48
2018-08-30T19:38:34.241Z,56.11
2018-08-30T19:41:08.642Z,55.66
2018-08-30T19:43:37.502Z,55.42
2018-08-30T19:46:06.796Z,55.66
2018-08-30T19:48:35.853Z,56.13
2018-08-30T19:51:11.495Z,56.80
2018-08-30T19:53:40.733Z,56.12
2018-08-30T19:56:10.031Z,57.29
2018-08-30T19:58:39.251Z,56.77
2018-08-30T20:01:08.686Z,57.11
2018-08-30T20:03:37.799Z,57.27
2018-08-30T20:06:07.337Z,56.44
2018-08-30T20:08:36.202Z,57.29
2018-08-30T20:11:04.955Z,58.27
2018-08-30T20:13:34.653Z,58.48
2018-08-30T20:16:03.937Z,59.35
2018-08-30T20:18:33.393Z,58.50
2018-08-30T20:21:03.030Z,59.02
2018-08-30T20:23:32.431Z,59.75
2018-08-30T20:26:04.750Z,59.54
2018-08-30T20:31:05.321Z,58.85
2018-08-30T20:33:35.653Z,59.72
2018-08-30T20:36:04.309Z,59.13
2018-08-30T20:38:32.838Z,59.15
2018-08-30T20:41:01.538Z,59.88
2018-08-30T20:43:30.247Z,60.60
2018-08-30T20:45:58.893Z,59.92
2018-08-30T20:48:28.260Z,60.22
2018-08-30T20:50:57.119Z,59.88
2018-08-30T20:53:26.121Z,60.66
2018-08-30T20:55:55.202Z,61.33
2018-08-30T20:58:24.257Z,61.26
2018-08-30T21:00:52.823Z,61.66
2018-08-30T21:03:21.513Z,61.05
2018-08-30T21:05:50.880Z,61.11
2018-08-30T21:08:19.400Z,61.00
2018-08-30T21:10:48.605Z,60.83
2018-08-30T21:13:17.292Z,61.20
2018-08-30T21:15:46.049Z,61.27
2018-08-30T21:18:14.878Z,61.43
2018-08-30T21:20:44.221Z,62.23
2018-08-30T21:23:12.908Z,62.46
2018-08-30T21:25:41.505Z,61.46
2018-08-30T21:28:10.079Z,62.36
2018-08-30T21:30:39.001Z,61.30
2018-08-30T21:33:07.848Z,62.16
2018-08-30T21:35:36.367Z,61.71
2018-08-30T21:38:05.290Z,62.25
2018-08-30T21:40:33.778Z,62.62
2018-08-30T21:43:02.504Z,62.64
2018-08-30T21:45:31.090Z,61.51
2018-08-30T21:47:59.668Z,62.54
2018-08-30T21:50:29.556Z,61.91
2018-08-30T21:52:58.404Z,62.73
2018-08-30T21:55:27.224Z,62.07
2018-08-30T21:57:55.750Z,62.29
2018-08-30T22:00:24.309Z,62.81
2018-08-30T22:02:52.865Z,62.67
2018-08-30T22:05:21.414Z,62.79
2018-08-30T22:07:49.988Z,63.04
2018-08-30T22:10:18.623Z,63.49
2018-08-30T22:12:47.208Z,62.88
2018-08-30T22:15:16.298Z,63.43
2018-08-30T22:17:44.914Z,63.20
2018-08-30T22:20:13.481Z,63.67
2018-08-30T22:22:42.401Z,63.93
2018-08-30T22:25:10.861Z,63.59
2018-08-30T22:27:39.395Z,63.08
2018-08-30T22:30:09.582Z,62.89
2018-08-30T22:32:38.873Z,63.62
2018-08-30T22:35:07.791Z,63.50
2018-08-30T22:37:36.732Z,63.35
2018-08-30T22:40:06.088Z,63.45
2018-08-30T22:42:34.536Z,63.82
2018-08-30T22:45:03.787Z,63.67
2018-08-30T22:47:32.736Z,64.19
2018-08-30T22:50:03.461Z,64.49
2018-08-30T22:52:31.948Z,63.85
2018-08-30T22:55:00.825Z,64.25
2018-08-30T22:57:29.774Z,64.13
2018-08-30T22:59:58.569Z,64.41
2018-08-30T23:02:27.509Z,64.33
2018-08-30T23:04:56.376Z,64.65
2018-08-30T23:07:25.184Z,64.85
2018-08-30T23:09:53.788Z,65.41
2018-08-30T23:12:22.421Z,65.24
2018-08-30T23:14:53.330Z,65.24
2018-08-30T23:17:22.554Z,65.24
2018-08-30T23:19:51.101Z,64.97
2018-08-30T23:22:20.323Z,65.25
2018-08-30T23:24:49.111Z,65.39
2018-08-30T23:27:18.670Z,64.99
2018-08-30T23:29:47.257Z,65.47
2018-08-30T23:32:15.869Z,65.75
2018-08-30T23:34:44.472Z,65.61
2018-08-30T23:37:13.082Z,65.69
2018-08-30T23:39:41.633Z,65.87
2018-08-30T23:42:11.257Z,65.83
2018-08-30T23:44:39.901Z,65.49
2018-08-30T23:47:08.484Z,65.39
2018-08-30T23:49:36.925Z,65.67
2018-08-30T23:52:05.645Z,65.76
2018-08-30T23:54:34.836Z,66.03
2018-08-30T23:57:03.363Z,65.95
2018-08-30T23:59:42.907Z,66.83
